Arboles, CO

10:36 PM MST on December 21, 2014 (GMT -0700)
Crowbar Creek | Change Station
CLOSE
Current Station
Personal Weather Station
Location: Bayfield, CO
Elevation: 6979 ft
Nearby Weather Stations

Elev 6979 ft 37.21 °N, 107.54 °W | Updated 4 seconds ago

Partly Cloudy
Partly Cloudy
37.3 °F
Feels Like 37 °F
N
2.2
Wind Variable Wind from SSW
Gusts 6.9 mph

Today
High -- | Low -- °F
--% Chance of Precip.
Yesterday
High -- | Low -- °F
Precip. -- in
7:19 AM 4:56 PM
New Moon, 0% visible
Pressure 29.93 in
Visibility 10.0 miles
Clouds Clear
Windchill 37 °F
Dew Point 31 °F
Humidity 79%
Rainfall 0.00 in
Snow Depth Not available.
UV 0 out of 12
Pollen 1.00 out of 12
Air Quality Not available.
Flu Activity Not available.
METAR KDRO 220453Z AUTO 27018KT 10SM CLR 03/M01 A2989 RMK AO2 PK WND 26026/0426 SLP135 T00331011

More Conditions Fewer Conditions

Pressure 29.93 in
Visibility 10.0 miles
Clouds Clear
Windchill 37 °F
Dew Point 31 °F
Humidity 79%
Rainfall 0.00 in
Snow Depth Not available.
UV 0 out of 12
Pollen 1.00 out of 12
Air Quality Not available.
Flu Activity Not available.
METAR KDRO 220453Z AUTO 27018KT 10SM CLR 03/M01 A2989 RMK AO2 PK WND 26026/0426 SLP135 T00331011

More Conditions Fewer Conditions

10-Day Weather Forecast

Almanac

Astronomy

Dec. 21, 2014 Rise Set
Actual Time
Civil Twilight
Nautical Twilight
Astronomical Twilight
Moon
Length of Visible Light
Length of Day
Tomorrow will be .
, % of the Moon is Illuminated

Today's Extremes

State Highs State Lows

Community

WunderPhotos

Upload Photos

1,779,549 photos uploaded!

WunderBlogs® & News

Nearby

Air Quality

  Air Quality AQ Index Pollutant
Not available.

Snow Depth

Station Depth Elevation

Earthquake Activity

City Distance Mag. Time & Date
Minimum magnitude displayed is 2.5.

Coastal Water Temperatures

Place Temperature

Nearby Weather Stations